createdAt,value
2016-10-07T00:00:07.771Z,6.7
2016-10-07T00:01:07.731Z,6.7
2016-10-07T00:02:07.396Z,6.67
2016-10-07T00:03:07.346Z,6.71
2016-10-07T00:04:07.621Z,6.73
2016-10-07T00:05:07.572Z,6.74
2016-10-07T00:06:07.229Z,6.71
2016-10-07T00:07:07.495Z,6.73
2016-10-07T00:08:07.456Z,6.74
2016-10-07T00:09:07.416Z,6.77
2016-10-07T00:10:07.378Z,6.73
2016-10-07T00:11:07.338Z,6.76
2016-10-07T00:12:06.995Z,6.77
2016-10-07T00:13:07.263Z,6.77
2016-10-07T00:14:07.220Z,6.79
2016-10-07T00:15:07.187Z,6.85
2016-10-07T00:16:06.839Z,6.79
2016-10-07T00:17:07.106Z,6.8
2016-10-07T00:18:07.065Z,6.81
2016-10-07T00:19:07.022Z,6.73
2016-10-07T00:20:06.686Z,6.79
2016-10-07T00:21:06.650Z,6.77
2016-10-07T00:22:06.611Z,6.76
2016-10-07T00:23:06.866Z,6.76
2016-10-07T00:24:06.523Z,6.71
2016-10-07T00:25:06.794Z,6.8
2016-10-07T00:26:06.751Z,6.71
2016-10-07T00:27:06.562Z,6.74
2016-10-07T00:28:06.667Z,6.79
2016-10-07T00:29:06.638Z,6.85
2016-10-07T00:30:06.307Z,6.85
2016-10-07T00:31:06.256Z,6.87
2016-10-07T00:32:06.521Z,6.84
2016-10-07T00:33:06.177Z,6.84
2016-10-07T00:34:06.439Z,6.85
2016-10-07T00:35:06.099Z,6.85
2016-10-07T00:36:06.061Z,6.89
2016-10-07T00:37:06.017Z,6.88
2016-10-07T00:38:06.285Z,6.84
2016-10-07T00:39:06.247Z,6.87
2016-10-07T00:40:06.205Z,6.91
2016-10-07T00:41:06.169Z,6.92
2016-10-07T00:42:05.825Z,6.92
2016-10-07T00:43:06.088Z,6.98
2016-10-07T00:44:05.745Z,6.95
2016-10-07T00:45:06.011Z,7.02
2016-10-07T00:46:05.972Z,7.03
2016-10-07T00:47:05.942Z,7.1
2016-10-07T00:48:05.590Z,7.05
2016-10-07T00:49:05.851Z,7.07
2016-10-07T00:50:05.217Z,6.98
2016-10-07T00:51:05.778Z,7.02
2016-10-07T00:52:05.738Z,6.99
2016-10-07T00:53:05.698Z,7.16
2016-10-07T00:54:05.358Z,7.05
2016-10-07T00:55:05.621Z,7.12
2016-10-07T00:56:05.579Z,7.02
2016-10-07T00:57:05.544Z,7.06
2016-10-07T00:58:05.502Z,7.06
2016-10-07T00:59:05.465Z,7.07
2016-10-07T01:00:05.438Z,7.03
2016-10-07T01:01:05.088Z,7.03
2016-10-07T01:02:05.359Z,7.12
2016-10-07T01:03:05.009Z,7.09
2016-10-07T01:04:05.273Z,6.99
2016-10-07T01:05:05.230Z,7.07
2016-10-07T01:06:05.199Z,7.05
2016-10-07T01:07:04.857Z,7.05
2016-10-07T01:08:04.513Z,7.09
2016-10-07T01:09:05.077Z,7.06
2016-10-07T01:10:05.038Z,7.03
2016-10-07T01:11:05.000Z,7.05
2016-10-07T01:12:04.655Z,7.07
2016-10-07T01:13:04.317Z,7.07
2016-10-07T01:14:04.582Z,7.09
2016-10-07T01:15:04.546Z,7.07
2016-10-07T01:16:04.802Z,7.06
2016-10-07T01:17:04.765Z,7.03
2016-10-07T01:18:04.729Z,7.07
2016-10-07T01:19:04.684Z,7.09
2016-10-07T01:20:04.356Z,7.03
2016-10-07T01:21:04.330Z,7.05
2016-10-07T01:22:04.570Z,7.1
2016-10-07T01:23:04.228Z,7.05
2016-10-07T01:24:04.198Z,7.05
2016-10-07T01:25:04.158Z,7.06
2016-10-07T01:26:04.109Z,7.09
2016-10-07T01:27:04.084Z,7.03
2016-10-07T01:28:04.338Z,7.09
2016-10-07T01:29:04.324Z,7.06
2016-10-07T01:30:03.958Z,7.1
2016-10-07T01:31:03.924Z,6.97
2016-10-07T01:32:04.187Z,7.02
2016-10-07T01:33:03.846Z,6.95
2016-10-07T01:34:03.502Z,7.15
2016-10-07T01:35:04.067Z,7.1
2016-10-07T01:36:04.029Z,6.98
2016-10-07T01:37:03.992Z,7.09
2016-10-07T01:38:03.950Z,7.1
2016-10-07T01:39:03.917Z,7.1
2016-10-07T01:40:03.877Z,7.09
2016-10-07T01:41:03.839Z,7.1
2016-10-07T01:42:03.800Z,7.1
2016-10-07T01:43:03.756Z,7.07
2016-10-07T01:44:03.720Z,7.09
2016-10-07T01:45:03.376Z,7.12
2016-10-07T01:46:03.345Z,7.13
2016-10-07T01:47:03.603Z,7.13
2016-10-07T01:48:03.261Z,7.13
2016-10-07T01:49:03.533Z,7.13
2016-10-07T01:50:03.182Z,7.13
2016-10-07T01:51:03.449Z,7.07
2016-10-07T01:52:03.109Z,7.15
2016-10-07T01:53:03.062Z,7.03
2016-10-07T01:54:03.330Z,7.17
2016-10-07T01:55:02.988Z,7.1
2016-10-07T01:56:03.252Z,7.03
2016-10-07T01:57:02.913Z,7.07
2016-10-07T01:58:03.186Z,7.12
2016-10-07T01:59:03.142Z,7.05
2016-10-07T02:00:03.100Z,7.2
2016-10-07T02:01:02.753Z,7.1
2016-10-07T02:02:02.413Z,7.16
2016-10-07T02:03:02.380Z,7.12
2016-10-07T02:04:02.642Z,7.07
2016-10-07T02:05:02.602Z,7.16
2016-10-07T02:06:02.863Z,7.1
2016-10-07T02:07:02.530Z,7.12
2016-10-07T02:08:02.484Z,7.1
2016-10-07T02:09:02.755Z,7.09
2016-10-07T02:10:02.412Z,7.03
2016-10-07T02:11:02.672Z,7.15
2016-10-07T02:12:02.333Z,7.12
2016-10-07T02:13:02.598Z,7.07
2016-10-07T02:14:01.948Z,7.05
2016-10-07T02:15:01.920Z,7.07
2016-10-07T02:16:02.477Z,7.15
2016-10-07T02:17:02.134Z,7.16
2016-10-07T02:18:02.418Z,7.07
2016-10-07T02:19:02.360Z,6.99
2016-10-07T02:20:02.324Z,7.07
2016-10-07T02:21:02.288Z,7.03
2016-10-07T02:22:02.247Z,7.05
2016-10-07T02:23:02.222Z,7.03
2016-10-07T02:24:01.564Z,6.88
2016-10-07T02:25:01.828Z,6.89
2016-10-07T02:26:02.095Z,6.89
2016-10-07T02:27:02.058Z,6.87
2016-10-07T02:28:02.013Z,6.85
2016-10-07T02:29:01.675Z,6.88
2016-10-07T02:30:01.937Z,6.77
2016-10-07T02:31:01.913Z,6.81
2016-10-07T02:32:01.862Z,6.76
2016-10-07T02:33:01.820Z,6.71
2016-10-07T02:34:01.782Z,6.67
2016-10-07T02:35:01.449Z,6.66
2016-10-07T02:36:01.704Z,6.71
2016-10-07T02:37:01.366Z,6.56
2016-10-07T02:38:01.630Z,6.59
2016-10-07T02:39:01.592Z,6.54
2016-10-07T02:40:01.552Z,6.51
2016-10-07T02:41:01.511Z,6.64
2016-10-07T02:42:01.172Z,6.54
2016-10-07T02:43:01.448Z,6.46
2016-10-07T02:44:01.093Z,6.54
2016-10-07T02:45:01.108Z,6.46
2016-10-07T02:46:01.317Z,6.43
2016-10-07T02:47:01.279Z,6.46
2016-10-07T02:48:01.239Z,6.37
2016-10-07T02:49:01.203Z,6.46
2016-10-07T02:50:01.161Z,6.44
2016-10-07T02:51:00.824Z,6.43
2016-10-07T02:52:01.104Z,6.4
2016-10-07T02:53:01.051Z,6.34
2016-10-07T02:54:01.011Z,6.19
2016-10-07T02:55:00.671Z,6.33
2016-10-07T02:56:00.931Z,6.17
2016-10-07T02:57:00.890Z,6.25
2016-10-07T02:58:00.294Z,6.25
2016-10-07T02:59:00.515Z,6.19
2016-10-07T03:00:00.780Z,6.17
2016-10-07T03:01:00.740Z,6.19
2016-10-07T03:02:00.701Z,6.14
2016-10-07T03:03:00.666Z,6.09
2016-10-07T03:04:00.322Z,6.11
2016-10-07T03:05:00.585Z,6.11
2016-10-07T03:06:00.546Z,6.06
2016-10-07T03:07:00.207Z,6.11
2016-10-07T03:08:00.468Z,6.08
2016-10-07T03:09:00.434Z,6.12
2016-10-07T03:10:00.392Z,6.08
2016-10-07T03:11:00.044Z,6.15
2016-10-07T03:12:00.071Z,6.17
2016-10-07T03:13:00.271Z,6.14
2016-10-07T03:14:00.233Z,6.14
2016-10-07T03:15:00.194Z,6.19
2016-10-07T03:16:00.156Z,6.17
2016-10-07T03:17:00.148Z,6.21
2016-10-07T03:17:59.784Z,6.27
2016-10-07T03:18:59.738Z,6.27
2016-10-07T03:19:59.999Z,6.27
2016-10-07T03:20:59.961Z,6.27
2016-10-07T03:21:59.924Z,6.19
2016-10-07T03:22:59.887Z,6.25
2016-10-07T03:23:59.907Z,6.34
2016-10-07T03:24:59.805Z,6.36
2016-10-07T03:25:59.774Z,6.44
2016-10-07T03:26:59.727Z,6.44
2016-10-07T03:27:59.691Z,6.41
2016-10-07T03:28:59.648Z,6.41
2016-10-07T03:29:59.311Z,6.43
2016-10-07T03:30:59.270Z,6.46
2016-10-07T03:31:59.534Z,6.48
2016-10-07T03:32:59.495Z,6.49
2016-10-07T03:33:59.155Z,6.54
2016-10-07T03:34:59.415Z,6.41
2016-10-07T03:35:59.383Z,6.51
2016-10-07T03:36:59.343Z,6.58
2016-10-07T03:37:59.304Z,6.52
2016-10-07T03:38:59.270Z,6.56
2016-10-07T03:39:59.223Z,6.55
2016-10-07T03:40:59.190Z,6.46
2016-10-07T03:41:59.149Z,6.4
2016-10-07T03:42:58.804Z,6.44
2016-10-07T03:43:59.068Z,6.37
2016-10-07T03:44:59.028Z,6.3
2016-10-07T03:45:59.033Z,6.22
2016-10-07T03:46:58.650Z,6.15
2016-10-07T03:47:58.609Z,6.15
2016-10-07T03:48:58.875Z,6.01
2016-10-07T03:49:58.837Z,6.14
2016-10-07T03:50:58.797Z,6.04
2016-10-07T03:51:58.453Z,6
2016-10-07T03:52:58.721Z,5.99
2016-10-07T03:53:58.677Z,5.96
2016-10-07T03:54:58.635Z,5.9
2016-10-07T03:55:58.602Z,5.96
2016-10-07T03:56:58.556Z,5.82
2016-10-07T03:57:58.216Z,5.86
2016-10-07T03:58:58.482Z,5.81
2016-10-07T03:59:58.447Z,5.81
2016-10-07T04:00:58.410Z,5.82
2016-10-07T04:01:58.369Z,5.82
2016-10-07T04:02:58.326Z,5.78
2016-10-07T04:03:57.988Z,5.83
2016-10-07T04:04:58.251Z,5.71
2016-10-07T04:05:58.212Z,5.82
2016-10-07T04:06:58.175Z,5.64
2016-10-07T04:07:57.830Z,5.78
2016-10-07T04:08:58.099Z,5.72
2016-10-07T04:09:58.053Z,5.71
2016-10-07T04:10:58.013Z,5.78
2016-10-07T04:11:57.978Z,5.78
2016-10-07T04:12:57.938Z,5.72
2016-10-07T04:13:57.596Z,5.76
2016-10-07T04:14:57.858Z,5.71
2016-10-07T04:15:57.521Z,5.78
2016-10-07T04:16:57.779Z,5.76
2016-10-07T04:17:57.740Z,5.78
2016-10-07T04:18:57.700Z,5.79
2016-10-07T04:19:57.661Z,5.86
2016-10-07T04:20:57.622Z,5.76
2016-10-07T04:21:57.589Z,5.93
2016-10-07T04:22:57.243Z,5.89
2016-10-07T04:23:57.210Z,5.93
2016-10-07T04:24:57.468Z,5.86
2016-10-07T04:25:57.537Z,5.96
2016-10-07T04:26:57.096Z,5.99
2016-10-07T04:27:57.349Z,5.91
2016-10-07T04:28:57.312Z,5.97
2016-10-07T04:29:57.273Z,5.99
2016-10-07T04:30:57.238Z,6.03
2016-10-07T04:31:57.197Z,5.97
2016-10-07T04:32:56.854Z,6.01
2016-10-07T04:33:57.149Z,6
2016-10-07T04:34:57.080Z,6.06
2016-10-07T04:35:57.040Z,6.08
2016-10-07T04:36:57.011Z,6.06
2016-10-07T04:37:56.960Z,6.08
2016-10-07T04:38:56.928Z,6.08
2016-10-07T04:39:56.880Z,6.17
2016-10-07T04:40:56.839Z,6.11
2016-10-07T04:41:56.817Z,6.09
2016-10-07T04:42:56.462Z,6.03
2016-10-07T04:43:56.727Z,6.11
2016-10-07T04:44:56.395Z,6.09
2016-10-07T04:45:56.647Z,6.08
2016-10-07T04:46:56.608Z,6.15
2016-10-07T04:47:56.570Z,6.15
2016-10-07T04:48:56.231Z,6.12
2016-10-07T04:49:56.189Z,6.09
2016-10-07T04:50:56.455Z,6.15
2016-10-07T04:51:56.114Z,6.18
2016-10-07T04:52:56.375Z,6.11
2016-10-07T04:53:56.336Z,6.21
2016-10-07T04:54:56.296Z,6.18
2016-10-07T04:55:55.957Z,6.19
2016-10-07T04:56:56.222Z,6.18
2016-10-07T04:57:56.185Z,6.25
2016-10-07T04:58:56.139Z,6.3
2016-10-07T04:59:56.104Z,6.18
2016-10-07T05:00:56.079Z,6.31
2016-10-07T05:01:56.021Z,6.37
2016-10-07T05:02:55.384Z,6.38
2016-10-07T05:03:55.943Z,6.34
2016-10-07T05:04:55.909Z,6.36
2016-10-07T05:05:55.571Z,6.38
2016-10-07T05:06:55.527Z,6.44
2016-10-07T05:07:55.799Z,6.4
2016-10-07T05:08:55.452Z,6.37
2016-10-07T05:09:55.715Z,6.43
2016-10-07T05:10:55.675Z,6.43
2016-10-07T05:11:55.635Z,6.52
2016-10-07T05:12:55.303Z,6.52
2016-10-07T05:13:55.556Z,6.52
2016-10-07T05:14:55.564Z,6.51
2016-10-07T05:15:55.190Z,6.58
2016-10-07T05:16:55.439Z,6.59
2016-10-07T05:17:54.796Z,6.69
2016-10-07T05:18:54.761Z,6.67
2016-10-07T05:19:55.025Z,6.73
2016-10-07T05:20:55.294Z,6.74
2016-10-07T05:21:54.942Z,6.81
2016-10-07T05:22:55.206Z,6.8
2016-10-07T05:23:55.169Z,6.91
2016-10-07T05:24:55.132Z,6.85
2016-10-07T05:25:55.093Z,6.98
2016-10-07T05:26:54.749Z,7.02
2016-10-07T05:27:54.712Z,7.1
2016-10-07T05:28:54.376Z,7.1
2016-10-07T05:29:54.933Z,7.1
2016-10-07T05:30:54.595Z,7.09
2016-10-07T05:31:54.857Z,7.21
2016-10-07T05:32:54.535Z,7.21
2016-10-07T05:33:54.485Z,7.27
2016-10-07T05:34:54.741Z,7.3
2016-10-07T05:35:54.705Z,7.34
2016-10-07T05:36:54.364Z,7.37
2016-10-07T05:37:54.625Z,7.4
2016-10-07T05:38:54.591Z,7.43
2016-10-07T05:39:54.255Z,7.57
2016-10-07T05:40:54.511Z,7.53
2016-10-07T05:41:54.169Z,7.61
2016-10-07T05:42:54.438Z,7.61
2016-10-07T05:43:54.391Z,7.67
2016-10-07T05:44:54.370Z,7.72
2016-10-07T05:45:54.316Z,7.75
2016-10-07T05:46:53.673Z,7.69
2016-10-07T05:47:54.238Z,7.85
2016-10-07T05:48:54.213Z,7.85
2016-10-07T05:49:53.861Z,7.93
2016-10-07T05:50:54.125Z,7.92
2016-10-07T05:51:53.794Z,7.97
2016-10-07T05:52:54.048Z,8.05
2016-10-07T05:53:54.009Z,7.95
2016-10-07T05:54:53.975Z,7.98
2016-10-07T05:55:53.930Z,8.02
2016-10-07T05:56:53.590Z,8.01
2016-10-07T05:57:53.853Z,8
2016-10-07T05:58:53.829Z,7.98
2016-10-07T05:59:53.780Z,8.01
2016-10-07T06:00:53.435Z,7.97
2016-10-07T06:01:53.398Z,7.97
2016-10-07T06:02:53.664Z,7.97
2016-10-07T06:03:53.628Z,7.98
2016-10-07T06:04:53.285Z,8.05
2016-10-07T06:05:53.556Z,7.93
2016-10-07T06:06:53.514Z,7.95
2016-10-07T06:07:53.474Z,7.93
2016-10-07T06:08:53.435Z,7.93
2016-10-07T06:09:53.097Z,7.89
2016-10-07T06:10:53.358Z,7.89
2016-10-07T06:11:52.714Z,7.89
2016-10-07T06:12:53.284Z,7.92
2016-10-07T06:13:52.955Z,7.9
2016-10-07T06:14:52.902Z,7.93
2016-10-07T06:15:52.875Z,7.9
2016-10-07T06:16:53.132Z,8
2016-10-07T06:17:52.490Z,7.97
2016-10-07T06:18:53.053Z,8
2016-10-07T06:19:53.020Z,7.95
2016-10-07T06:20:52.678Z,8.01
2016-10-07T06:21:52.644Z,8.07
2016-10-07T06:22:52.600Z,8.07
2016-10-07T06:23:52.874Z,8.05
2016-10-07T06:24:52.523Z,8.16
2016-10-07T06:25:52.488Z,8.02
2016-10-07T06:26:52.449Z,8.18
2016-10-07T06:27:52.723Z,8.19
2016-10-07T06:28:52.072Z,8.22
2016-10-07T06:29:52.635Z,8.2
2016-10-07T06:30:52.296Z,8.22
2016-10-07T06:31:52.258Z,8.22
2016-10-07T06:32:52.523Z,8.22
2016-10-07T06:33:52.495Z,8.23
2016-10-07T06:34:52.451Z,8.28
2016-10-07T06:35:52.413Z,8.15
2016-10-07T06:36:52.370Z,8.18
2016-10-07T06:37:52.333Z,8.23
2016-10-07T06:38:52.004Z,8.22
2016-10-07T06:39:52.255Z,8.22
2016-10-07T06:40:52.219Z,8.2
2016-10-07T06:41:52.180Z,8.25
2016-10-07T06:42:51.541Z,8.16
2016-10-07T06:43:51.805Z,8.2
2016-10-07T06:44:52.065Z,8.29
2016-10-07T06:45:52.029Z,8.29
2016-10-07T06:46:51.687Z,8.29
2016-10-07T06:47:51.954Z,8.37
2016-10-07T06:48:51.610Z,8.34
2016-10-07T06:49:51.579Z,8.43
2016-10-07T06:50:51.840Z,8.43
2016-10-07T06:51:51.498Z,8.48
2016-10-07T06:52:51.763Z,8.45
2016-10-07T06:53:51.423Z,8.41
2016-10-07T06:54:51.384Z,8.5
2016-10-07T06:55:51.655Z,8.48
2016-10-07T06:56:51.616Z,8.58
2016-10-07T06:57:51.272Z,8.62
2016-10-07T06:58:51.541Z,8.58
2016-10-07T06:59:51.196Z,8.61
2016-10-07T07:00:51.463Z,8.71
2016-10-07T07:01:51.427Z,8.76
2016-10-07T07:02:51.088Z,8.74
2016-10-07T07:03:51.050Z,8.73
2016-10-07T07:04:51.324Z,8.81
2016-10-07T07:05:51.274Z,8.91
2016-10-07T07:06:50.938Z,8.86
2016-10-07T07:07:51.201Z,8.99
2016-10-07T07:08:50.562Z,8.94
2016-10-07T07:09:51.124Z,9.05
2016-10-07T07:10:50.794Z,9.08
2016-10-07T07:11:51.049Z,8.98
2016-10-07T07:12:51.015Z,9.11
2016-10-07T07:13:50.974Z,9.15
2016-10-07T07:14:50.948Z,9.23
2016-10-07T07:15:50.901Z,9.24
2016-10-07T07:16:50.258Z,9.31
2016-10-07T07:17:50.825Z,9.33
2016-10-07T07:18:50.484Z,9.31
2016-10-07T07:19:50.452Z,9.31
2016-10-07T07:20:50.714Z,9.28
2016-10-07T07:21:50.680Z,9.29
2016-10-07T07:22:50.639Z,9.28
2016-10-07T07:23:50.615Z,9.28
2016-10-07T07:24:50.267Z,9.38
2016-10-07T07:25:50.533Z,9.35
2016-10-07T07:26:49.906Z,9.48
2016-10-07T07:27:50.454Z,9.4
2016-10-07T07:28:50.419Z,9.48
2016-10-07T07:29:50.075Z,9.43
2016-10-07T07:30:50.339Z,9.47
2016-10-07T07:31:50.302Z,9.43
2016-10-07T07:32:50.268Z,9.46
2016-10-07T07:33:49.931Z,9.46
2016-10-07T07:34:50.192Z,9.46
2016-10-07T07:35:50.153Z,9.38
2016-10-07T07:36:50.120Z,9.48
2016-10-07T07:37:50.088Z,9.53
2016-10-07T07:38:50.047Z,9.56
2016-10-07T07:39:50.011Z,9.58
2016-10-07T07:40:49.670Z,9.6
2016-10-07T07:41:49.333Z,9.65
2016-10-07T07:42:49.900Z,9.72
2016-10-07T07:43:49.862Z,9.78
2016-10-07T07:44:49.822Z,9.81
2016-10-07T07:45:49.784Z,9.91
2016-10-07T07:46:49.450Z,9.93
2016-10-07T07:47:49.711Z,9.89
2016-10-07T07:48:49.677Z,9.89
2016-10-07T07:49:49.637Z,9.97
2016-10-07T07:50:49.601Z,10.01
2016-10-07T07:51:49.274Z,10.01
2016-10-07T07:52:49.537Z,10.09
2016-10-07T07:53:49.493Z,10.18
2016-10-07T07:54:49.454Z,10.23
2016-10-07T07:55:49.118Z,10.18
2016-10-07T07:56:49.384Z,10.18
2016-10-07T07:57:49.346Z,10.17
2016-10-07T07:58:49.333Z,10.2
2016-10-07T07:59:48.989Z,10.27
2016-10-07T08:00:48.938Z,10.33
2016-10-07T08:01:49.202Z,10.32
2016-10-07T08:02:48.862Z,10.27
2016-10-07T08:03:49.122Z,10.32
2016-10-07T08:04:49.092Z,10.33
2016-10-07T08:05:48.758Z,10.38
2016-10-07T08:06:48.716Z,10.34
2016-10-07T08:07:48.678Z,10.34
2016-10-07T08:08:48.939Z,10.32
2016-10-07T08:09:48.910Z,10.42
2016-10-07T08:10:48.873Z,10.59
2016-10-07T08:11:48.234Z,10.53
2016-10-07T08:12:48.800Z,10.67
2016-10-07T08:13:48.764Z,10.79
2016-10-07T08:14:48.726Z,10.82
2016-10-07T08:15:48.742Z,10.82
2016-10-07T08:16:48.353Z,10.82
2016-10-07T08:17:48.617Z,10.79
2016-10-07T08:18:48.279Z,10.92
2016-10-07T08:19:48.248Z,10.91
2016-10-07T08:20:48.512Z,11.03
2016-10-07T08:21:48.474Z,11.09
2016-10-07T08:22:48.142Z,11.1
2016-10-07T08:23:48.403Z,11.22
2016-10-07T08:24:48.365Z,11.32
2016-10-07T08:25:48.030Z,11.27
2016-10-07T08:26:48.296Z,11.33
2016-10-07T08:27:47.671Z,11.33
2016-10-07T08:28:48.225Z,11.29
2016-10-07T08:29:48.187Z,11.49
2016-10-07T08:30:47.846Z,11.42
2016-10-07T08:31:48.115Z,11.58
2016-10-07T08:32:48.082Z,11.61
2016-10-07T08:33:48.044Z,11.58
2016-10-07T08:34:48.009Z,11.44
2016-10-07T08:35:47.974Z,11.39
2016-10-07T08:36:47.631Z,11.35
2016-10-07T08:37:47.901Z,11.25
2016-10-07T08:38:47.865Z,11.14
2016-10-07T08:39:47.846Z,11.06
2016-10-07T08:40:47.799Z,11.07
2016-10-07T08:41:47.761Z,11.07
2016-10-07T08:42:47.726Z,11.07
2016-10-07T08:43:47.383Z,11.09
2016-10-07T08:44:47.650Z,11.04
2016-10-07T08:45:47.316Z,11.1
2016-10-07T08:46:46.981Z,11.17
2016-10-07T08:47:47.247Z,11.24
2016-10-07T08:48:47.512Z,11.32
2016-10-07T08:49:46.872Z,11.32
2016-10-07T08:50:47.452Z,11.32
2016-10-07T08:51:47.099Z,11.33
2016-10-07T08:52:47.064Z,11.49
2016-10-07T08:53:47.331Z,11.62
2016-10-07T08:54:47.299Z,11.79
2016-10-07T08:55:47.259Z,11.91
2016-10-07T08:56:46.927Z,12.02
2016-10-07T08:57:46.891Z,12.12
2016-10-07T08:58:46.556Z,12.14
2016-10-07T08:59:47.115Z,12.28
2016-10-07T09:00:46.797Z,12.45
2016-10-07T09:01:47.051Z,12.65
2016-10-07T09:02:46.720Z,12.85
2016-10-07T09:03:46.672Z,12.87
2016-10-07T09:04:46.945Z,13
2016-10-07T09:05:46.907Z,13.03
2016-10-07T09:06:46.582Z,13.08
2016-10-07T09:07:46.537Z,13.14
2016-10-07T09:08:46.503Z,13.22
2016-10-07T09:09:46.766Z,13.19
2016-10-07T09:10:46.433Z,13.04
2016-10-07T09:11:46.710Z,13.04
2016-10-07T09:12:46.360Z,13.03
2016-10-07T09:13:46.324Z,12.9
2016-10-07T09:14:45.998Z,12.77
2016-10-07T09:15:45.957Z,12.52
2016-10-07T09:16:46.226Z,12.53
2016-10-07T09:17:46.490Z,12.42
2016-10-07T09:18:46.453Z,12.17
2016-10-07T09:19:46.425Z,12.16
2016-10-07T09:20:46.388Z,12.05
2016-10-07T09:21:46.363Z,12.02
2016-10-07T09:22:46.319Z,12.13
2016-10-07T09:23:46.287Z,12.23
2016-10-07T09:24:45.948Z,12.31
2016-10-07T09:25:46.216Z,12.32
2016-10-07T09:26:46.184Z,12.27
2016-10-07T09:27:45.540Z,12.32
2016-10-07T09:28:45.809Z,12.42
2016-10-07T09:29:46.073Z,12.42
2016-10-07T09:30:46.044Z,12.29
2016-10-07T09:31:46.009Z,12.52
2016-10-07T09:32:45.972Z,12.5
2016-10-07T09:33:45.939Z,12.65
2016-10-07T09:34:45.601Z,12.75
2016-10-07T09:35:45.885Z,12.75
2016-10-07T09:36:45.832Z,12.78
2016-10-07T09:37:45.803Z,12.71
2016-10-07T09:38:45.770Z,12.67
2016-10-07T09:39:45.733Z,12.7
2016-10-07T09:40:45.695Z,12.65
2016-10-07T09:41:45.359Z,12.62
2016-10-07T09:42:45.328Z,12.6
2016-10-07T09:43:45.605Z,12.67
2016-10-07T09:44:45.560Z,12.71
2016-10-07T09:45:45.528Z,12.85
2016-10-07T09:46:45.496Z,13
2016-10-07T09:47:45.153Z,13.03
2016-10-07T09:48:45.422Z,13.01
2016-10-07T09:49:45.089Z,13.2
2016-10-07T09:50:44.751Z,13.39
2016-10-07T09:51:45.019Z,13.7
2016-10-07T09:52:44.678Z,13.75
2016-10-07T09:53:45.250Z,13.95
2016-10-07T09:54:45.213Z,14.02
2016-10-07T09:55:45.186Z,14.24
2016-10-07T09:56:44.845Z,14.35
2016-10-07T09:57:45.114Z,14.46
2016-10-07T09:58:45.082Z,14.65
2016-10-07T09:59:45.064Z,14.91
2016-10-07T10:00:44.712Z,15.11
2016-10-07T10:01:44.986Z,15.07
2016-10-07T10:02:44.949Z,14.92
2016-10-07T10:03:44.614Z,15.03
2016-10-07T10:04:44.279Z,15.2
2016-10-07T10:05:44.548Z,15.38
2016-10-07T10:06:44.517Z,15.28
2016-10-07T10:07:44.783Z,15.19
2016-10-07T10:08:44.452Z,15.25
2016-10-07T10:09:44.417Z,15.6
2016-10-07T10:10:44.690Z,15.97
2016-10-07T10:11:44.657Z,16.21
2016-10-07T10:12:44.024Z,16.21
2016-10-07T10:13:44.599Z,16.05
2016-10-07T10:14:44.560Z,16.05
2016-10-07T10:15:44.526Z,16.24
2016-10-07T10:16:44.497Z,16.09
2016-10-07T10:17:44.465Z,15.75
2016-10-07T10:18:44.433Z,15.43
2016-10-07T10:19:44.403Z,15.17
2016-10-07T10:20:44.072Z,15.06
2016-10-07T10:21:44.338Z,15.11
2016-10-07T10:22:44.307Z,15.28
2016-10-07T10:23:43.971Z,15.36
2016-10-07T10:24:43.942Z,15.27
2016-10-07T10:25:44.212Z,15.46
2016-10-07T10:26:44.175Z,15.64
2016-10-07T10:27:43.844Z,15.57
2016-10-07T10:28:44.115Z,15.44
2016-10-07T10:29:43.780Z,15.2
2016-10-07T10:30:44.046Z,15.19
2016-10-07T10:31:43.717Z,15.14
2016-10-07T10:32:43.690Z,15.59
2016-10-07T10:33:43.652Z,16.07
2016-10-07T10:34:43.925Z,16.75
2016-10-07T10:35:43.892Z,16.97
2016-10-07T10:36:43.562Z,16.89
2016-10-07T10:37:43.533Z,16.86
2016-10-07T10:38:43.192Z,16.28
2016-10-07T10:39:43.460Z,15.8
2016-10-07T10:40:43.738Z,15.78
2016-10-07T10:41:43.403Z,16.52
2016-10-07T10:42:43.672Z,17.41
2016-10-07T10:43:43.343Z,18.05
2016-10-07T10:44:43.615Z,18.6
2016-10-07T10:45:43.583Z,19.31
2016-10-07T10:46:43.246Z,20.06
2016-10-07T10:47:43.531Z,20.8
2016-10-07T10:48:43.190Z,21.25
2016-10-07T10:49:43.472Z,21.71
2016-10-07T10:50:43.446Z,21.58
2016-10-07T10:51:43.408Z,21.59
2016-10-07T10:52:43.080Z,21.74
2016-10-07T10:53:43.352Z,21.53
2016-10-07T10:54:43.024Z,21.27
2016-10-07T10:55:43.296Z,20.98
2016-10-07T10:56:43.269Z,20.73
2016-10-07T10:57:43.241Z,20.8
2016-10-07T10:58:43.220Z,21.13
2016-10-07T10:59:43.193Z,21.43
2016-10-07T11:00:43.169Z,21.31
2016-10-07T11:01:43.139Z,20.98
2016-10-07T11:02:42.808Z,20.06
2016-10-07T11:03:43.092Z,19.16
2016-10-07T11:04:43.062Z,18.85
2016-10-07T11:05:42.732Z,18.65
2016-10-07T11:06:42.703Z,18.7
2016-10-07T11:07:42.680Z,18.65
2016-10-07T11:08:42.958Z,18.32
2016-10-07T11:09:42.942Z,17.82
2016-10-07T11:10:42.597Z,17.33
2016-10-07T11:11:42.571Z,16.91
2016-10-07T11:12:42.843Z,16.56
2016-10-07T11:13:42.521Z,16.24
2016-10-07T11:14:42.787Z,16.07
2016-10-07T11:15:42.457Z,15.67
2016-10-07T11:16:42.727Z,15.6
2016-10-07T11:17:42.702Z,15.62
2016-10-07T11:18:42.670Z,15.74
2016-10-07T11:19:42.339Z,15.72
2016-10-07T11:20:42.611Z,15.67
2016-10-07T11:21:42.582Z,15.8
2016-10-07T11:22:42.251Z,16.08
2016-10-07T11:23:42.224Z,16.34
2016-10-07T11:24:42.190Z,16.46
2016-10-07T11:25:42.461Z,16.31
2016-10-07T11:26:42.428Z,15.97
2016-10-07T11:27:42.400Z,15.62
2016-10-07T11:28:42.369Z,15.44
2016-10-07T11:29:42.338Z,15.32
2016-10-07T11:30:42.310Z,14.89
2016-10-07T11:31:42.281Z,14.62
2016-10-07T11:32:42.245Z,14.43
2016-10-07T11:33:42.219Z,14.43
2016-10-07T11:34:41.894Z,14.25
2016-10-07T11:35:42.175Z,14.09
2016-10-07T11:36:42.121Z,14.09
2016-10-07T11:37:41.792Z,13.92
2016-10-07T11:38:41.758Z,14.07
2016-10-07T11:39:41.723Z,13.97
2016-10-07T11:40:41.691Z,13.99
2016-10-07T11:41:41.959Z,14.02
2016-10-07T11:42:41.627Z,14.2
2016-10-07T11:43:41.596Z,14.33
2016-10-07T11:44:41.864Z,14.36
2016-10-07T11:45:41.528Z,14.46
2016-10-07T11:46:41.502Z,14.57
2016-10-07T11:47:41.162Z,14.91
2016-10-07T11:48:41.432Z,15.06
2016-10-07T11:49:41.703Z,15.25
2016-10-07T11:50:41.667Z,15.35
2016-10-07T11:51:41.636Z,15.51
2016-10-07T11:52:41.306Z,15.65
2016-10-07T11:53:41.268Z,15.62
2016-10-07T11:54:41.237Z,15.69
2016-10-07T11:55:41.507Z,15.69
2016-10-07T11:56:41.474Z,15.71
2016-10-07T11:57:40.839Z,15.64
2016-10-07T11:58:41.407Z,15.54
2016-10-07T11:59:41.078Z,15.49
2016-10-07T12:00:41.042Z,15.28
2016-10-07T12:01:41.009Z,15.38
2016-10-07T12:02:41.279Z,15.36
2016-10-07T12:03:40.945Z,15.41
2016-10-07T12:04:40.911Z,15.51
2016-10-07T12:05:41.182Z,15.65
2016-10-07T12:06:41.150Z,15.6
2016-10-07T12:07:41.119Z,15.68
2016-10-07T12:08:40.787Z,15.74
2016-10-07T12:09:40.746Z,15.8
2016-10-07T12:10:41.022Z,15.8
2016-10-07T12:11:40.986Z,15.92
2016-10-07T12:12:40.953Z,16.02
2016-10-07T12:13:40.617Z,16.25
2016-10-07T12:14:40.593Z,16.3
2016-10-07T12:15:40.854Z,16.3
2016-10-07T12:16:40.820Z,16.28
2016-10-07T12:17:40.488Z,16.2
2016-10-07T12:18:40.459Z,16.08
2016-10-07T12:19:40.726Z,15.92
2016-10-07T12:20:40.695Z,15.83
2016-10-07T12:21:40.659Z,15.69
2016-10-07T12:22:40.632Z,15.74
2016-10-07T12:23:40.294Z,15.72
2016-10-07T12:24:40.565Z,15.65
2016-10-07T12:25:40.228Z,15.65
2016-10-07T12:26:40.501Z,15.6
2016-10-07T12:27:40.470Z,15.54
2016-10-07T12:28:40.133Z,15.56
2016-10-07T12:29:40.400Z,15.59
2016-10-07T12:30:40.067Z,15.46
2016-10-07T12:31:40.036Z,15.51
2016-10-07T12:32:40.002Z,15.41
2016-10-07T12:33:40.280Z,15.47
2016-10-07T12:34:40.237Z,15.32
2016-10-07T12:35:39.907Z,15.19
2016-10-07T12:36:39.869Z,14.99
2016-10-07T12:37:40.143Z,14.81
2016-10-07T12:38:40.114Z,14.73
2016-10-07T12:39:40.075Z,14.57
2016-10-07T12:40:40.042Z,14.52
2016-10-07T12:41:39.719Z,14.39
2016-10-07T12:42:39.986Z,14.22
2016-10-07T12:43:39.945Z,14.06
2016-10-07T12:44:39.614Z,13.96
2016-10-07T12:45:39.880Z,13.92
2016-10-07T12:46:39.844Z,13.77
2016-10-07T12:47:39.514Z,13.64
2016-10-07T12:48:39.777Z,13.54
2016-10-07T12:49:39.441Z,13.54
2016-10-07T12:50:39.712Z,13.41
2016-10-07T12:51:39.676Z,13.32
2016-10-07T12:52:39.636Z,13.32
2016-10-07T12:53:39.607Z,13.14
2016-10-07T12:54:39.575Z,13.14
2016-10-07T12:55:39.544Z,13.1
2016-10-07T12:56:39.507Z,13.08
2016-10-07T12:57:39.471Z,13.04
2016-10-07T12:58:39.441Z,13.03
2016-10-07T12:59:39.399Z,13.1
2016-10-07T13:00:39.368Z,13.05
2016-10-07T13:01:39.349Z,12.96
2016-10-07T13:02:39.302Z,12.96
2016-10-07T13:03:39.263Z,13.04
2016-10-07T13:04:39.247Z,13
2016-10-07T13:05:38.889Z,13
2016-10-07T13:06:39.160Z,12.96
2016-10-07T13:07:38.521Z,13.03
2016-10-07T13:08:39.099Z,13.07
2016-10-07T13:09:39.054Z,13.04